createdAt,value
2023-01-13T00:00:35.223Z,99287.88
2023-01-13T00:03:03.419Z,99301.66
2023-01-13T00:05:31.403Z,99292.22
2023-01-13T00:07:59.380Z,99296.47
2023-01-13T00:10:27.431Z,99287.03
2023-01-13T00:12:55.325Z,99294.72
2023-01-13T00:15:24.829Z,99284.53
2023-01-13T00:17:52.771Z,99290.56
2023-01-13T00:20:21.032Z,99283.69
2023-01-13T00:22:49.177Z,99285.38
2023-01-13T00:25:17.532Z,99288.78
2023-01-13T00:27:45.429Z,99287.00
2023-01-13T00:30:14.326Z,99275.00
2023-01-13T00:32:43.819Z,99283.69
2023-01-13T00:35:11.829Z,99288.00
2023-01-13T00:37:41.019Z,99282.00
2023-01-13T00:40:11.557Z,99288.91
2023-01-13T00:42:58.065Z,99279.38
2023-01-13T00:45:26.033Z,99281.94
2023-01-13T00:47:55.281Z,99278.50
2023-01-13T00:50:23.247Z,99276.72
2023-01-13T00:52:51.121Z,99276.72
2023-01-13T00:55:19.100Z,99283.63
2023-01-13T00:57:47.014Z,99288.81
2023-01-13T01:00:16.000Z,99280.22
2023-01-13T01:02:44.019Z,99275.03
2023-01-13T01:05:13.340Z,99291.44
2023-01-13T01:07:41.201Z,99283.63
2023-01-13T01:10:11.168Z,99280.13
2023-01-13T01:12:39.295Z,99290.38
2023-01-13T01:15:11.653Z,99268.72
2023-01-13T01:17:39.932Z,99286.88
2023-01-13T01:20:10.608Z,99273.06
2023-01-13T01:22:40.253Z,99270.50
2023-01-13T01:25:09.642Z,99267.88
2023-01-13T01:27:37.624Z,99283.41
2023-01-13T01:30:08.119Z,99255.66
2023-01-13T01:32:36.242Z,99289.31
2023-01-13T01:35:05.191Z,99281.47
2023-01-13T01:37:33.684Z,99303.88
2023-01-13T01:40:03.175Z,99309.09
2023-01-13T01:42:49.738Z,99294.38
2023-01-13T01:45:21.051Z,99300.25
2023-01-13T01:47:57.129Z,99309.69
2023-01-13T01:50:27.470Z,99312.28
2023-01-13T01:53:02.707Z,99315.72
2023-01-13T01:55:37.111Z,99310.41
2023-01-13T01:58:11.382Z,99300.94
2023-01-13T02:00:39.647Z,99316.38
2023-01-13T02:03:11.204Z,99337.91
2023-01-13T02:05:41.388Z,99322.38
2023-01-13T02:08:12.947Z,99327.47
2023-01-13T02:10:48.203Z,99322.38
2023-01-13T02:13:17.365Z,99327.66
2023-01-13T02:15:57.921Z,99331.06
2023-01-13T02:18:51.083Z,99312.00
2023-01-13T02:22:15.648Z,99318.94
2023-01-13T02:25:19.728Z,99315.50
2023-01-13T02:28:14.132Z,99307.72
2023-01-13T02:31:10.054Z,99320.56
2023-01-13T02:33:53.643Z,99310.25
2023-01-13T02:36:39.208Z,99315.38
2023-01-13T02:39:19.100Z,99303.19
2023-01-13T02:42:16.440Z,99315.28
2023-01-13T02:44:51.607Z,99286.72
2023-01-13T02:47:25.216Z,99282.53
2023-01-13T02:50:00.428Z,99262.75
2023-01-13T02:52:37.473Z,99266.09
2023-01-13T02:55:15.230Z,99260.00
2023-01-13T02:57:47.398Z,99268.59
2023-01-13T03:00:18.885Z,99275.41
2023-01-13T03:02:50.063Z,99280.66
2023-01-13T03:05:18.788Z,99290.94
2023-01-13T03:08:09.979Z,99282.34
2023-01-13T03:11:03.747Z,99274.69
2023-01-13T03:13:53.139Z,99281.47
2023-01-13T03:16:31.783Z,99289.31
2023-01-13T03:19:22.090Z,99278.03
2023-01-13T03:21:57.165Z,99284.81
2023-01-13T03:24:34.924Z,99290.81
2023-01-13T03:27:12.679Z,99286.66
2023-01-13T03:29:49.578Z,99284.03
2023-01-13T03:32:24.531Z,99284.09
2023-01-13T03:34:59.261Z,99278.91
2023-01-13T03:37:35.557Z,99278.88
2023-01-13T03:40:13.240Z,99279.78
2023-01-13T03:43:06.732Z,99280.53
2023-01-13T03:45:37.352Z,99269.31
2023-01-13T03:48:13.562Z,99288.22
2023-01-13T03:50:52.276Z,99291.69
2023-01-13T03:53:28.529Z,99290.03
2023-01-13T03:56:05.694Z,99276.97
2023-01-13T03:58:42.191Z,99279.56
2023-01-13T04:01:19.283Z,99263.22
2023-01-13T04:03:57.667Z,99268.44
2023-01-13T04:06:40.953Z,99263.41
2023-01-13T04:09:18.552Z,99266.81
2023-01-13T04:11:55.820Z,99257.31
2023-01-13T04:14:31.456Z,99262.44
2023-01-13T04:17:00.240Z,99270.22
2023-01-13T04:19:28.311Z,99268.34
2023-01-13T04:21:57.899Z,99273.53
2023-01-13T04:24:28.052Z,99281.31
2023-01-13T04:26:56.842Z,99275.22
2023-01-13T04:29:25.417Z,99270.16
2023-01-13T04:31:53.826Z,99255.41
2023-01-13T04:34:22.015Z,99259.88
2023-01-13T04:36:51.377Z,99244.44
2023-01-13T04:39:21.200Z,99236.78
2023-01-13T04:42:00.749Z,99234.13
2023-01-13T04:44:31.564Z,99242.75
2023-01-13T04:47:01.708Z,99235.06
2023-01-13T04:49:33.270Z,99252.25
2023-01-13T04:52:05.083Z,99236.78
2023-01-13T04:54:36.786Z,99226.50
2023-01-13T04:57:05.341Z,99228.34
2023-01-13T04:59:34.605Z,99244.66
2023-01-13T05:02:03.257Z,99257.44
2023-01-13T05:04:32.017Z,99241.94
2023-01-13T05:07:00.512Z,99244.69
2023-01-13T05:09:33.279Z,99238.66
2023-01-13T05:12:21.510Z,99227.38
2023-01-13T05:15:08.609Z,99226.53
2023-01-13T05:17:38.754Z,99232.47
2023-01-13T05:20:11.259Z,99223.94
2023-01-13T05:22:58.599Z,99235.97
2023-01-13T05:25:30.570Z,99241.13
2023-01-13T05:28:01.162Z,99229.09
2023-01-13T05:30:33.418Z,99230.84
2023-01-13T05:33:01.851Z,99232.56
2023-01-13T05:35:30.011Z,99223.09
2023-01-13T05:37:58.185Z,99225.50
2023-01-13T05:40:45.148Z,99230.63
2023-01-13T05:43:21.715Z,99231.56
2023-01-13T05:45:53.552Z,99222.16
2023-01-13T05:48:25.361Z,99248.88
2023-01-13T05:50:54.187Z,99240.16
2023-01-13T05:53:24.652Z,99247.19
2023-01-13T05:55:53.126Z,99245.38
2023-01-13T05:58:26.278Z,99247.84
2023-01-13T06:01:01.263Z,99259.78
2023-01-13T06:03:30.347Z,99243.44
2023-01-13T06:06:01.602Z,99233.84
2023-01-13T06:08:31.433Z,99231.28
2023-01-13T06:11:00.792Z,99233.84
2023-01-13T06:13:31.368Z,99244.94
2023-01-13T06:16:02.263Z,99248.25
2023-01-13T06:18:32.415Z,99274.16
2023-01-13T06:21:02.340Z,99272.44
2023-01-13T06:23:35.078Z,99283.09
2023-01-13T06:26:12.326Z,99274.59
2023-01-13T06:28:42.106Z,99284.81
2023-01-13T06:31:11.208Z,99282.31
2023-01-13T06:33:45.976Z,99287.41
2023-01-13T06:36:24.706Z,99289.13
2023-01-13T06:39:00.206Z,99289.31
2023-01-13T06:41:51.130Z,99281.38
2023-01-13T06:44:24.009Z,99278.09
2023-01-13T06:46:53.747Z,99275.47
2023-01-13T06:49:22.023Z,99275.44
2023-01-13T06:51:50.640Z,99267.69
2023-01-13T06:54:18.602Z,99267.59
2023-01-13T06:56:47.021Z,99265.78
2023-01-13T06:59:15.361Z,99283.84
2023-01-13T07:01:45.397Z,99281.38
2023-01-13T07:04:13.799Z,99294.25
2023-01-13T07:06:42.761Z,99287.34
2023-01-13T07:09:12.516Z,99290.63
2023-01-13T07:11:40.766Z,99289.78
2023-01-13T07:14:27.577Z,99297.31
2023-01-13T07:16:57.515Z,99292.13
2023-01-13T07:19:25.883Z,99293.75
2023-01-13T07:21:57.066Z,99301.56
2023-01-13T07:24:25.498Z,99301.50
2023-01-13T07:34:20.185Z,99291.56
2023-01-13T07:36:50.351Z,99301.22
2023-01-13T07:39:21.649Z,99299.34
2023-01-13T07:42:08.669Z,99308.84
2023-01-13T07:44:39.427Z,99304.53
2023-01-13T07:47:10.530Z,99302.84
2023-01-13T07:49:40.206Z,99315.72
2023-01-13T07:52:09.075Z,99298.38
2023-01-13T07:54:41.385Z,99304.56
2023-01-13T07:57:10.061Z,99293.41
2023-01-13T07:59:38.592Z,99306.22
2023-01-13T08:02:10.919Z,99316.69
2023-01-13T08:10:19.746Z,99308.13
2023-01-13T08:13:07.938Z,99306.44
2023-01-13T08:15:36.288Z,99311.69
2023-01-13T08:18:04.274Z,99327.13
2023-01-13T08:20:33.271Z,99323.78
2023-01-13T08:23:02.217Z,99323.63
2023-01-13T08:25:35.022Z,99321.03
2023-01-13T08:28:05.075Z,99327.78
2023-01-13T08:30:44.575Z,99333.03
2023-01-13T08:33:16.428Z,99331.38
2023-01-13T08:35:46.070Z,99333.94
2023-01-13T08:38:14.340Z,99342.50
2023-01-13T08:40:47.099Z,99339.03
2023-01-13T08:43:15.540Z,99333.91
2023-01-13T08:45:44.547Z,99340.78
2023-01-13T08:48:13.793Z,99346.88
2023-01-13T08:50:44.789Z,99337.44
2023-01-13T08:53:15.815Z,99344.50
2023-01-13T08:55:46.946Z,99349.75
2023-01-13T08:58:17.029Z,99338.38
2023-01-13T09:00:45.446Z,99351.47
2023-01-13T09:03:15.520Z,99345.28
2023-01-13T09:05:44.667Z,99348.84
2023-01-13T09:08:14.306Z,99353.28
2023-01-13T09:10:43.157Z,99363.63
2023-01-13T09:13:14.494Z,99353.97
2023-01-13T09:15:47.408Z,99365.34
2023-01-13T09:18:15.590Z,99374.03
2023-01-13T09:20:45.040Z,99369.72
2023-01-13T09:23:13.689Z,99372.34
2023-01-13T09:25:42.641Z,99357.84
2023-01-13T09:28:11.226Z,99370.53
2023-01-13T09:30:41.748Z,99359.44
2023-01-13T09:33:28.830Z,99369.88
2023-01-13T09:36:02.238Z,99368.91
2023-01-13T09:38:37.488Z,99371.63
2023-01-13T09:41:27.361Z,99348.28
2023-01-13T09:44:03.886Z,99377.78
2023-01-13T09:46:48.215Z,99369.38
2023-01-13T09:49:22.706Z,99362.34
2023-01-13T09:52:04.124Z,99389.06
2023-01-13T09:54:41.689Z,99387.41
2023-01-13T09:57:13.150Z,99384.03
2023-01-13T09:59:42.260Z,99388.28
2023-01-13T10:02:39.301Z,99388.34
2023-01-13T10:05:20.309Z,99400.03
2023-01-13T10:07:57.124Z,99382.81
2023-01-13T10:10:39.045Z,99384.41
2023-01-13T10:13:21.282Z,99382.13
2023-01-13T10:16:03.585Z,99388.88
2023-01-13T10:18:59.334Z,99396.72
2023-01-13T10:22:09.431Z,99379.63
2023-01-13T10:25:13.190Z,99376.31
2023-01-13T10:27:46.838Z,99400.63
2023-01-13T10:30:21.518Z,99385.22
2023-01-13T10:32:55.279Z,99386.03
2023-01-13T10:35:56.550Z,99386.91
2023-01-13T10:38:30.037Z,99385.34
2023-01-13T10:41:04.519Z,99365.53
2023-01-13T10:43:33.331Z,99389.72
2023-01-13T10:46:06.118Z,99379.41
2023-01-13T10:48:41.453Z,99389.66
2023-01-13T10:51:22.564Z,99382.88
2023-01-13T10:53:55.688Z,99384.69
2023-01-13T10:56:27.736Z,99399.19
2023-01-13T10:59:22.349Z,99390.47
2023-01-13T11:02:01.247Z,99397.22
2023-01-13T11:04:38.772Z,99392.22
2023-01-13T11:07:30.373Z,99392.22
2023-01-13T11:10:17.080Z,99399.75
2023-01-13T11:12:58.344Z,99405.78
2023-01-13T11:15:40.761Z,99414.16
2023-01-13T11:18:22.576Z,99412.56
2023-01-13T11:20:55.208Z,99410.56
2023-01-13T11:23:34.705Z,99420.94
2023-01-13T11:26:11.790Z,99407.50
2023-01-13T11:28:55.047Z,99414.84
2023-01-13T11:31:31.868Z,99418.34
2023-01-13T11:34:08.283Z,99405.44
2023-01-13T11:36:45.603Z,99439.84
2023-01-13T11:39:26.417Z,99430.41
2023-01-13T11:42:21.097Z,99448.31
2023-01-13T11:45:04.030Z,99439.78
2023-01-13T11:47:36.549Z,99447.97
2023-01-13T11:50:19.073Z,99444.84
2023-01-13T11:53:10.433Z,99465.66
2023-01-13T11:55:59.187Z,99455.88
2023-01-13T11:58:58.498Z,99475.31
2023-01-13T12:01:50.378Z,99460.75
2023-01-13T12:04:28.622Z,99475.41
2023-01-13T12:07:15.762Z,99475.69
2023-01-13T12:10:03.982Z,99466.66
2023-01-13T12:13:01.189Z,99465.94
2023-01-13T12:16:12.338Z,99474.44
2023-01-13T12:19:26.531Z,99481.59
2023-01-13T12:22:11.485Z,99476.63
2023-01-13T12:24:55.291Z,99469.66
2023-01-13T12:27:42.688Z,99477.63
2023-01-13T12:30:28.453Z,99473.31
2023-01-13T12:33:26.149Z,99487.22
2023-01-13T12:36:04.005Z,99485.38
2023-01-13T12:38:44.606Z,99465.59
2023-01-13T12:41:29.541Z,99485.38
2023-01-13T12:44:20.314Z,99490.53
2023-01-13T12:46:58.140Z,99497.34
2023-01-13T12:49:33.925Z,99495.53
2023-01-13T12:52:19.999Z,99485.78
2023-01-13T12:55:14.637Z,99489.00
2023-01-13T12:58:13.695Z,99496.72
2023-01-13T13:01:11.974Z,99507.00
2023-01-13T13:04:03.864Z,99471.69
2023-01-13T13:06:40.588Z,99509.66
2023-01-13T13:09:26.608Z,99517.78
2023-01-13T13:11:58.241Z,99503.91
2023-01-13T13:15:03.820Z,99505.03
2023-01-13T13:17:41.809Z,99516.34
2023-01-13T13:20:57.522Z,99521.41
2023-01-13T13:23:48.838Z,99531.88
2023-01-13T13:26:46.757Z,99526.66
2023-01-13T13:29:49.879Z,99537.28
2023-01-13T13:32:42.205Z,99525.22
2023-01-13T13:35:31.305Z,99533.91
2023-01-13T13:38:41.942Z,99532.19
2023-01-13T13:41:45.282Z,99530.59
2023-01-13T13:44:39.323Z,99538.13
2023-01-13T13:47:10.261Z,99543.44
2023-01-13T13:49:42.090Z,99545.59
2023-01-13T13:52:20.604Z,99531.91
2023-01-13T13:54:54.560Z,99529.97
2023-01-13T13:57:33.300Z,99550.88
2023-01-13T14:00:09.284Z,99568.09
2023-01-13T14:02:46.956Z,99570.72
2023-01-13T14:05:22.900Z,99576.72
2023-01-13T14:07:59.818Z,99573.25
2023-01-13T14:10:36.096Z,99581.56
2023-01-13T14:13:16.034Z,99584.34
2023-01-13T14:15:46.566Z,99601.19
2023-01-13T14:18:18.556Z,99597.38
2023-01-13T14:20:55.496Z,99609.59
2023-01-13T14:23:29.162Z,99604.34
2023-01-13T14:26:09.011Z,99610.53
2023-01-13T14:28:41.963Z,99619.53
2023-01-13T14:31:19.800Z,99633.41
2023-01-13T14:33:51.913Z,99635.19
2023-01-13T14:36:24.184Z,99632.72
2023-01-13T14:39:34.040Z,99636.38
2023-01-13T14:42:04.330Z,99642.66
2023-01-13T14:44:38.444Z,99638.56
2023-01-13T14:47:23.330Z,99650.63
2023-01-13T14:50:03.459Z,99659.44
2023-01-13T14:52:35.241Z,99664.28
2023-01-13T14:55:29.175Z,99661.00
2023-01-13T14:58:31.001Z,99680.66
2023-01-13T15:01:29.504Z,99684.91
2023-01-13T15:04:17.344Z,99681.44
2023-01-13T15:06:56.292Z,99667.50
2023-01-13T15:09:28.870Z,99695.31
2023-01-13T15:11:59.623Z,99702.56
2023-01-13T15:14:32.399Z,99695.72
2023-01-13T15:17:01.414Z,99688.00
2023-01-13T15:19:30.124Z,99699.28
2023-01-13T15:21:58.501Z,99710.56
2023-01-13T15:24:26.973Z,99701.94
2023-01-13T15:26:56.136Z,99707.81
2023-01-13T15:29:28.095Z,99716.47
2023-01-13T15:31:57.643Z,99718.16
2023-01-13T15:34:26.053Z,99723.72
2023-01-13T15:36:58.529Z,99732.53
2023-01-13T15:39:27.272Z,99733.34
2023-01-13T15:42:15.778Z,99735.09
2023-01-13T15:45:02.786Z,99743.78
2023-01-13T15:47:34.067Z,99742.75
2023-01-13T15:50:02.386Z,99742.06
2023-01-13T15:52:31.112Z,99741.00
2023-01-13T15:54:59.247Z,99746.91
2023-01-13T15:57:30.494Z,99746.78
2023-01-13T16:00:07.495Z,99748.63
2023-01-13T16:02:39.306Z,99753.00
2023-01-13T16:05:13.435Z,99759.25
2023-01-13T16:07:44.444Z,99762.63
2023-01-13T16:10:19.333Z,99762.75
2023-01-13T16:12:47.757Z,99769.91
2023-01-13T16:15:18.709Z,99764.28
2023-01-13T16:17:56.173Z,99779.09
2023-01-13T16:20:24.779Z,99788.47
2023-01-13T16:22:53.326Z,99781.53
2023-01-13T16:25:26.189Z,99785.03
2023-01-13T16:27:55.120Z,99795.19
2023-01-13T16:30:29.079Z,99793.09
2023-01-13T16:32:59.365Z,99813.81
2023-01-13T16:35:28.976Z,99826.22
2023-01-13T16:37:58.761Z,99823.13
2023-01-13T16:40:33.803Z,99818.88
2023-01-13T16:43:05.365Z,99834.13
2023-01-13T16:45:34.642Z,99848.38
2023-01-13T16:48:05.017Z,99866.66
2023-01-13T16:50:38.680Z,99875.47
2023-01-13T16:53:09.424Z,99867.00
2023-01-13T16:55:41.535Z,99877.63
2023-01-13T16:58:18.379Z,99868.66
2023-01-13T17:00:49.063Z,99880.84
2023-01-13T17:03:19.875Z,99878.47
2023-01-13T17:05:47.919Z,99881.94
2023-01-13T17:08:18.330Z,99887.94
2023-01-13T17:10:50.439Z,99888.19
2023-01-13T17:13:21.672Z,99886.25
2023-01-13T17:15:49.767Z,99888.03
2023-01-13T17:18:19.910Z,99885.50
2023-01-13T17:20:49.400Z,99883.84
2023-01-13T17:23:17.363Z,99890.09
2023-01-13T17:25:45.386Z,99891.69
2023-01-13T17:28:14.123Z,99898.13
2023-01-13T17:30:44.112Z,99906.72
2023-01-13T17:33:42.179Z,99916.06
2023-01-13T17:36:10.586Z,99907.56
2023-01-13T17:38:40.344Z,99914.31
2023-01-13T17:41:08.438Z,99919.56
2023-01-13T17:43:36.780Z,99914.59
2023-01-13T17:46:09.359Z,99920.75
2023-01-13T17:48:40.950Z,99907.88
2023-01-13T17:51:13.348Z,99914.00
2023-01-13T17:53:43.292Z,99920.03
2023-01-13T17:56:14.861Z,99923.59
2023-01-13T17:58:47.940Z,99932.28
2023-01-13T18:01:19.406Z,99928.78
2023-01-13T18:03:49.923Z,99939.16
2023-01-13T18:06:21.217Z,99939.16
2023-01-13T18:08:50.104Z,99942.75
2023-01-13T18:14:57.518Z,99960.84
2023-01-13T18:17:25.591Z,99945.06
2023-01-13T18:20:15.594Z,99952.59
2023-01-13T18:23:03.513Z,99949.56
2023-01-13T18:25:50.325Z,99957.13
2023-01-13T18:28:18.858Z,99964.50
2023-01-13T18:30:51.082Z,99964.75
2023-01-13T18:33:20.224Z,99968.16
2023-01-13T18:35:49.832Z,99981.94
2023-01-13T18:38:23.311Z,99978.66
2023-01-13T18:40:51.675Z,99986.41
2023-01-13T18:43:21.003Z,99990.47
2023-01-13T18:45:51.308Z,99995.41
2023-01-13T18:48:19.435Z,99993.25
2023-01-13T18:50:49.207Z,100004.38
2023-01-13T18:53:17.318Z,100016.41
2023-01-13T18:55:45.293Z,100008.50
2023-01-13T18:58:13.736Z,100000.94
2023-01-13T19:00:42.562Z,99997.16
2023-01-13T19:03:11.825Z,100010.16
2023-01-13T19:05:39.857Z,100028.22
2023-01-13T19:08:14.323Z,100023.78
2023-01-13T19:10:48.781Z,100020.31
2023-01-13T19:13:22.799Z,100034.22
2023-01-13T19:15:56.504Z,100044.50
2023-01-13T19:18:27.174Z,100041.28
2023-01-13T19:20:55.993Z,100053.34
2023-01-13T19:23:27.936Z,100059.41
2023-01-13T19:26:06.518Z,100065.34
2023-01-13T19:56:49.705Z,100099.97
2023-01-13T19:59:29.137Z,100097.19
2023-01-13T20:01:57.706Z,100103.38
2023-01-13T20:04:40.506Z,100108.13
2023-01-13T20:07:09.287Z,100116.59
2023-01-13T20:09:37.930Z,100107.28
2023-01-13T20:12:15.386Z,100122.53
2023-01-13T20:24:00.642Z,100134.06
2023-01-13T20:26:35.367Z,100137.50
2023-01-13T20:29:46.981Z,100129.09
2023-01-13T20:33:00.123Z,100129.41
2023-01-13T20:36:01.121Z,100132.06
2023-01-13T20:39:08.777Z,100142.81
2023-01-13T20:41:58.786Z,100140.50
2023-01-13T20:44:34.617Z,100138.34
2023-01-13T20:47:05.090Z,100150.72
2023-01-13T20:49:36.909Z,100155.78
2023-01-13T20:52:09.622Z,100168.25
2023-01-13T20:54:41.950Z,100164.53
2023-01-13T20:57:12.264Z,100176.50
2023-01-13T20:59:40.563Z,100179.13
2023-01-13T21:02:14.020Z,100186.75
2023-01-13T21:04:44.853Z,100176.41
2023-01-13T21:07:13.173Z,100178.34
2023-01-13T21:09:46.543Z,100181.47
2023-01-13T21:12:35.642Z,100180.19
2023-01-13T21:15:17.194Z,100161.19
2023-01-13T21:18:06.345Z,100184.53
2023-01-13T21:20:36.907Z,100172.38
2023-01-13T21:23:06.527Z,100190.69
2023-01-13T21:25:43.529Z,100194.72
2023-01-13T21:28:13.573Z,100193.16
2023-01-13T21:30:43.809Z,100189.75
2023-01-13T21:33:14.487Z,100195.38
2023-01-13T21:35:42.738Z,100202.47
2023-01-13T21:38:12.120Z,100211.13
2023-01-13T21:40:42.467Z,100200.00
2023-01-13T21:43:31.970Z,100221.34
2023-01-13T21:46:18.728Z,100219.84
2023-01-13T21:48:50.099Z,100228.25
2023-01-13T21:51:18.229Z,100240.34
2023-01-13T21:53:46.226Z,100245.50
2023-01-13T21:56:24.272Z,100244.72
2023-01-13T21:58:52.484Z,100255.16
2023-01-13T22:01:20.577Z,100252.56
2023-01-13T22:04:07.292Z,100259.53
2023-01-13T22:06:39.589Z,100257.94
2023-01-13T22:09:07.746Z,100254.97
2023-01-13T22:11:37.127Z,100258.28
2023-01-13T22:14:13.421Z,100268.50
2023-01-13T22:16:49.029Z,100266.41
2023-01-13T22:19:18.296Z,100277.13
2023-01-13T22:21:46.261Z,100266.50
2023-01-13T22:24:14.594Z,100284.25
2023-01-13T22:26:44.962Z,100278.38
2023-01-13T22:29:13.029Z,100265.53
2023-01-13T22:31:41.463Z,100281.91
2023-01-13T22:34:15.195Z,100276.75
2023-01-13T22:36:43.256Z,100278.69
2023-01-13T22:39:12.265Z,100281.88
2023-01-13T22:41:40.271Z,100292.00
2023-01-13T22:44:09.823Z,100281.97
2023-01-13T22:46:39.841Z,100282.28
2023-01-13T22:49:08.483Z,100285.31
2023-01-13T22:51:36.612Z,100294.03
2023-01-13T22:54:05.427Z,100293.84
2023-01-13T22:56:33.847Z,100297.03
2023-01-13T22:59:04.568Z,100306.72
2023-01-13T23:01:35.363Z,100316.00
2023-01-13T23:04:05.107Z,100317.66
2023-01-13T23:06:40.095Z,100322.06
2023-01-13T23:09:10.100Z,100322.94
2023-01-13T23:11:39.609Z,100324.78
2023-01-13T23:14:11.875Z,100317.97
2023-01-13T23:16:42.149Z,100330.81
2023-01-13T23:19:11.016Z,100335.06
2023-01-13T23:21:39.050Z,100335.19
2023-01-13T23:24:08.417Z,100334.50
2023-01-13T23:26:40.987Z,100337.66
2023-01-13T23:29:13.209Z,100336.31
2023-01-13T23:31:43.531Z,100335.97
2023-01-13T23:34:12.475Z,100329.16
2023-01-13T23:36:42.487Z,100334.44
2023-01-13T23:39:10.909Z,100337.44
2023-01-13T23:41:39.542Z,100330.47
2023-01-13T23:44:07.990Z,100341.25
2023-01-13T23:46:36.637Z,100344.88
2023-01-13T23:49:07.165Z,100338.88
2023-01-13T23:51:35.369Z,100338.41
2023-01-13T23:54:03.526Z,100329.22
2023-01-13T23:56:33.229Z,100340.91
2023-01-13T23:59:01.206Z,100342.13
